Time;durP1;ratioP1;P1;durP2;ratioP2;P2;SDS_P1;SDS_P2;PMS_P1;PMS_P2;Temp;Humidity;BMP_temperature;BMP_pressure;BME280_temperature;BME280_humidity;BME280_pressure;Samples;Min_cycle;Max_cycle;Signal;HPM_P1;HPM_P2
2023/08/16 00:01:15;;;;;;;10.27;6.47;;;;;;;14.55;97.76;101935.38;10495250;28;20052;-68
2023/08/16 00:06:15;;;;;;;12.10;7.03;;;;;;;14.51;97.75;101933.25;10495204;28;20048;-68
2023/08/16 00:11:16;;;;;;;6.95;6.25;;;;;;;14.49;98.20;101936.16;10496359;28;20044;-68
2023/08/16 00:16:16;;;;;;;11.00;7.28;;;;;;;14.46;99.36;101936.53;10511495;28;20051;-68
2023/08/16 00:21:16;;;;;;;8.60;6.93;;;;;;;14.39;99.50;101930.22;10495351;28;20068;-68
2023/08/16 00:26:17;;;;;;;7.80;6.40;;;;;;;14.37;99.35;101929.56;10495866;28;20032;-68
2023/08/16 00:31:18;;;;;;;9.23;8.07;;;;;;;14.46;100.00;101938.44;10495996;28;20094;-68
2023/08/16 00:36:18;;;;;;;7.15;5.82;;;;;;;14.43;100.00;101947.84;10477253;28;20082;-68
2023/08/16 00:41:19;;;;;;;12.95;7.70;;;;;;;14.31;100.00;101946.69;10497112;28;20071;-68
2023/08/16 00:46:19;;;;;;;10.48;7.20;;;;;;;14.24;100.00;101946.63;10505431;28;20183;-68
2023/08/16 00:51:20;;;;;;;8.00;7.28;;;;;;;14.32;100.00;101960.09;10504713;28;20056;-68
2023/08/16 00:56:21;;;;;;;11.25;8.45;;;;;;;14.26;100.00;101970.94;10503980;28;20036;-68
2023/08/16 01:01:21;;;;;;;14.35;8.93;;;;;;;14.29;100.00;101971.38;10503918;28;20392;-68
2023/08/16 01:06:23;;;;;;;10.82;9.75;;;;;;;14.21;100.00;101960.66;10502837;28;20036;-68
2023/08/16 01:11:33;;;;;;;12.68;10.48;;;;;;;14.16;100.00;101957.66;10484733;28;20032;-68
2023/08/16 01:16:33;;;;;;;15.43;8.40;;;;;;;14.09;100.00;101967.66;10503372;28;20040;-68
2023/08/16 01:21:34;;;;;;;9.95;8.93;;;;;;;14.07;100.00;101965.13;10501879;28;20040;-68
2023/08/16 01:26:37;;;;;;;13.02;9.32;;;;;;;14.12;100.00;101970.81;10518093;28;20052;-68
2023/08/16 01:31:38;;;;;;;12.25;9.15;;;;;;;14.16;100.00;101977.56;10503072;28;20036;-68
2023/08/16 01:36:38;;;;;;;9.13;7.88;;;;;;;14.11;100.00;101984.66;10500900;28;20333;-68
2023/08/16 01:41:39;;;;;;;10.02;8.73;;;;;;;14.02;100.00;101988.53;10500751;28;20060;-68
2023/08/16 01:46:39;;;;;;;9.23;7.22;;;;;;;13.94;100.00;101986.75;10499985;28;20028;-68
2023/08/16 01:51:40;;;;;;;9.10;7.30;;;;;;;13.93;100.00;101995.97;10517210;28;20032;-68
2023/08/16 01:56:40;;;;;;;8.85;7.18;;;;;;;13.89;100.00;101989.25;10500880;28;20059;-68
2023/08/16 02:01:40;;;;;;;8.90;7.97;;;;;;;13.83;100.00;101995.44;10499161;28;20057;-68
2023/08/16 02:06:41;;;;;;;11.48;8.20;;;;;;;13.78;100.00;101997.88;10498506;28;20072;-68
2023/08/16 02:11:41;;;;;;;12.68;8.65;;;;;;;13.71;100.00;102003.25;10496256;28;20388;-68
2023/08/16 02:16:42;;;;;;;11.93;7.90;;;;;;;13.69;100.00;101997.19;10498718;28;20040;-68
2023/08/16 02:21:42;;;;;;;15.18;9.38;;;;;;;13.69;100.00;102005.34;10496533;28;20040;-68
2023/08/16 02:26:42;;;;;;;10.20;9.13;;;;;;;13.69;100.00;102000.75;10496174;28;20029;-68
2023/08/16 02:31:43;;;;;;;15.15;9.70;;;;;;;13.75;100.00;102003.72;10497778;28;20060;-68
2023/08/16 02:36:43;;;;;;;15.38;9.50;;;;;;;13.70;100.00;101996.97;10496661;28;20478;-68
2023/08/16 02:41:44;;;;;;;10.30;8.68;;;;;;;13.71;100.00;101984.22;10496856;28;20033;-68
2023/08/16 02:46:44;;;;;;;13.32;8.27;;;;;;;13.69;100.00;101989.84;10497115;28;20146;-68
2023/08/16 02:51:44;;;;;;;12.70;10.30;;;;;;;13.71;100.00;101995.94;10495991;28;20495;-68
2023/08/16 02:56:45;;;;;;;12.88;9.38;;;;;;;13.75;100.00;101998.28;10496979;28;20024;-68
2023/08/16 03:01:45;;;;;;;21.23;10.55;;;;;;;13.76;100.00;101994.53;10457586;28;1141850;-68
2023/08/16 03:06:46;;;;;;;12.10;10.85;;;;;;;13.72;100.00;101994.09;10497919;28;20133;-68
2023/08/16 03:11:48;;;;;;;12.55;10.32;;;;;;;13.65;100.00;102002.13;10479896;28;20477;-68
2023/08/16 03:16:49;;;;;;;19.08;10.35;;;;;;;13.67;100.00;102001.97;10497844;28;20437;-68
2023/08/16 03:21:49;;;;;;;18.35;11.10;;;;;;;13.70;100.00;102002.41;10498051;28;20029;-68
2023/08/16 03:26:50;;;;;;;16.85;12.65;;;;;;;13.75;100.00;102004.56;10495406;28;20020;-68
2023/08/16 03:31:50;;;;;;;13.60;12.25;;;;;;;13.89;100.00;102011.84;10495670;28;20028;-68
2023/08/16 03:36:50;;;;;;;15.13;13.43;;;;;;;13.84;100.00;102018.91;10497825;28;20368;-68
2023/08/16 03:41:51;;;;;;;22.48;14.77;;;;;;;13.84;100.00;102019.75;10497898;28;20034;-68
2023/08/16 03:46:51;;;;;;;22.38;15.45;;;;;;;13.95;100.00;102021.97;10495316;28;20492;-68
2023/08/16 03:51:52;;;;;;;19.05;13.98;;;;;;;13.99;100.00;102027.88;10496692;28;20101;-68
2023/08/16 03:56:52;;;;;;;20.88;15.15;;;;;;;13.86;100.00;102025.00;10496161;28;20460;-68
2023/08/16 04:01:53;;;;;;;17.65;14.75;;;;;;;13.77;100.00;102027.00;10496032;28;20064;-68
2023/08/16 04:06:53;;;;;;;15.10;13.40;;;;;;;13.77;100.00;102018.84;10495298;28;20041;-68
2023/08/16 04:11:53;;;;;;;18.45;14.70;;;;;;;13.79;100.00;102024.09;10498543;28;20036;-68
2023/08/16 04:16:54;;;;;;;19.80;15.10;;;;;;;13.81;100.00;102016.56;10497324;28;20438;-68
2023/08/16 04:21:54;;;;;;;16.23;13.57;;;;;;;13.80;100.00;102023.06;10496930;28;20491;-68
2023/08/16 04:26:55;;;;;;;20.98;15.00;;;;;;;13.79;100.00;102027.66;10497730;28;20036;-68
2023/08/16 04:31:56;;;;;;;15.45;13.25;;;;;;;13.75;100.00;102017.34;10496230;28;20044;-67
2023/08/16 04:36:56;;;;;;;19.77;14.52;;;;;;;13.78;100.00;102014.22;10495994;28;20028;-72
2023/08/16 04:41:57;;;;;;;18.15;14.18;;;;;;;13.81;100.00;102011.13;10497049;28;20096;-71
2023/08/16 04:46:57;;;;;;;26.65;16.17;;;;;;;13.84;100.00;102019.75;10477317;28;20033;-71
2023/08/16 04:51:58;;;;;;;20.23;14.52;;;;;;;13.94;100.00;102017.59;10495229;28;20476;-69
2023/08/16 04:56:58;;;;;;;21.08;15.48;;;;;;;14.03;100.00;102025.63;10492490;28;20040;-68
2023/08/16 05:01:59;;;;;;;19.83;14.70;;;;;;;14.01;100.00;102025.81;10494481;28;20151;-69
2023/08/16 05:06:59;;;;;;;17.30;14.05;;;;;;;14.04;100.00;102035.47;10492469;28;20021;-69
2023/08/16 05:11:59;;;;;;;19.05;15.35;;;;;;;14.03;100.00;102026.47;10494595;28;20044;-69
2023/08/16 05:17:00;;;;;;;18.67;12.75;;;;;;;14.11;100.00;102030.97;10495141;28;20343;-69
2023/08/16 05:22:00;;;;;;;17.27;14.73;;;;;;;14.27;100.00;102043.50;10494508;28;20045;-69
2023/08/16 05:27:01;;;;;;;22.33;15.35;;;;;;;14.39;100.00;102050.94;10495432;28;20029;-69
2023/08/16 05:32:01;;;;;;;18.20;14.95;;;;;;;14.62;100.00;102041.75;10502659;28;20037;-69
2023/08/16 05:37:02;;;;;;;24.60;17.15;;;;;;;14.82;100.00;102045.47;10500344;28;20069;-69
2023/08/16 05:42:02;;;;;;;21.05;17.70;;;;;;;15.02;100.00;102042.06;10501503;28;20070;-69
2023/08/16 05:47:03;;;;;;;24.02;16.40;;;;;;;15.24;100.00;102043.66;10500193;28;20033;-69
2023/08/16 05:52:03;;;;;;;21.00;16.67;;;;;;;15.51;100.00;102041.94;10500239;28;20040;-69
2023/08/16 05:57:04;;;;;;;21.15;14.02;;;;;;;15.85;100.00;102053.88;10500126;28;20036;-69
2023/08/16 06:02:04;;;;;;;16.95;13.07;;;;;;;16.30;100.00;102059.66;10499325;28;20478;-69
2023/08/16 06:07:04;;;;;;;13.07;11.68;;;;;;;17.82;100.00;102064.19;10500022;28;20040;-69
2023/08/16 06:12:05;;;;;;;15.65;11.50;;;;;;;19.02;100.00;102063.44;10499261;28;20369;-69
2023/08/16 06:17:05;;;;;;;20.30;11.00;;;;;;;19.07;100.00;102060.00;10499843;28;20036;-69
2023/08/16 06:22:06;;;;;;;11.15;9.73;;;;;;;18.47;100.00;102064.03;10500120;28;20088;-69
2023/08/16 06:27:08;;;;;;;17.85;10.40;;;;;;;19.07;100.00;102065.50;10499570;28;20078;-69
2023/08/16 06:32:09;;;;;;;10.75;8.15;;;;;;;18.99;100.00;102061.16;10499304;28;20384;-69
2023/08/16 06:37:09;;;;;;;10.32;7.57;;;;;;;20.21;100.00;102064.78;10497924;28;20047;-69
2023/08/16 06:42:09;;;;;;;7.22;6.40;;;;;;;21.18;100.00;102065.59;10498294;28;20064;-69
2023/08/16 06:47:10;;;;;;;6.95;6.35;;;;;;;21.48;100.00;102060.81;10498381;28;20077;-69
2023/08/16 06:52:11;;;;;;;6.38;5.40;;;;;;;22.12;100.00;102069.00;10496593;28;20082;-69
2023/08/16 06:57:11;;;;;;;11.10;6.40;;;;;;;22.28;100.00;102065.47;10498332;28;20036;-69
2023/08/16 07:02:14;;;;;;;5.35;4.95;;;;;;;22.29;100.00;102066.31;10495316;28;20086;-69
2023/08/16 07:07:14;;;;;;;6.18;5.25;;;;;;;22.99;100.00;102073.34;10497080;28;20029;-69
2023/08/16 07:12:15;;;;;;;6.68;5.93;;;;;;;23.52;100.00;102063.63;10480412;28;20040;-69
2023/08/16 07:17:15;;;;;;;6.53;5.93;;;;;;;24.08;100.00;102069.00;10496806;28;20484;-69
2023/08/16 07:22:15;;;;;;;7.18;5.25;;;;;;;24.43;99.01;102073.28;10497551;28;20089;-69
2023/08/16 07:27:16;;;;;;;11.70;5.85;;;;;;;24.53;99.17;102070.59;10497040;28;20031;-69
2023/08/16 07:32:16;;;;;;;5.10;4.00;;;;;;;24.98;95.29;102078.47;10496149;28;20472;-70
2023/08/16 07:37:17;;;;;;;4.28;3.30;;;;;;;25.03;93.76;102072.13;10477822;28;20044;-69
2023/08/16 07:42:17;;;;;;;2.78;2.58;;;;;;;25.01;92.59;102085.41;10496728;28;20071;-69
2023/08/16 07:47:18;;;;;;;3.42;3.13;;;;;;;25.70;85.93;102081.69;10494789;28;20024;-69
2023/08/16 07:52:18;;;;;;;3.10;2.90;;;;;;;25.36;75.88;102093.16;10494551;28;20055;-69
2023/08/16 07:57:19;;;;;;;11.48;3.90;;;;;;;25.43;74.25;102104.88;10495495;28;20045;-69
2023/08/16 08:02:21;;;;;;;4.82;3.33;;;;;;;26.20;71.59;102097.72;10495703;28;20072;-69
2023/08/16 08:07:22;;;;;;;2.70;2.50;;;;;;;27.06;69.40;102115.59;10495500;28;20040;-69
2023/08/16 08:12:23;;;;;;;3.22;2.67;;;;;;;27.21;64.02;102100.84;10494868;28;20043;-70
2023/08/16 08:17:24;;;;;;;2.47;2.08;;;;;;;27.63;59.81;102101.59;10494386;28;20039;-69
2023/08/16 08:22:24;;;;;;;1.85;1.75;;;;;;;27.47;55.67;102100.81;10493839;28;20086;-69
2023/08/16 08:27:25;;;;;;;1.05;1.05;;;;;;;27.52;55.84;102101.63;10494820;28;20392;-69
2023/08/16 08:32:25;;;;;;;1.73;1.63;;;;;;;27.42;53.75;102112.78;10495294;28;20037;-69
2023/08/16 08:37:26;;;;;;;3.00;1.92;;;;;;;27.47;50.28;102115.56;10494347;28;20074;-69
2023/08/16 08:42:27;;;;;;;5.72;1.80;;;;;;;27.62;52.42;102114.69;10492969;28;20033;-69
2023/08/16 08:47:29;;;;;;;1.90;1.80;;;;;;;28.02;47.87;102124.03;10493774;28;20040;-69
2023/08/16 08:52:29;;;;;;;2.55;1.88;;;;;;;28.17;45.18;102120.31;10493288;28;20430;-69
2023/08/16 08:57:30;;;;;;;2.88;1.88;;;;;;;28.37;49.56;102111.84;10494754;28;20044;-69
2023/08/16 09:02:33;;;;;;;2.78;1.75;;;;;;;28.67;48.41;102126.72;10494754;28;20084;-69
2023/08/16 09:07:34;;;;;;;1.85;1.75;;;;;;;28.89;49.67;102127.09;10501735;28;20033;-69
2023/08/16 09:12:36;;;;;;;2.60;2.33;;;;;;;28.80;46.54;102123.25;10500668;28;20028;-69
2023/08/16 09:17:36;;;;;;;3.05;2.03;;;;;;;28.72;48.93;102124.72;10483754;28;20029;-70
2023/08/16 09:22:37;;;;;;;3.08;2.58;;;;;;;29.31;48.73;102119.19;10501597;28;20041;-70
2023/08/16 09:27:40;;;;;;;1.50;1.40;;;;;;;29.40;47.27;102115.47;10500448;28;20047;-69
2023/08/16 09:32:40;;;;;;;2.17;1.88;;;;;;;28.98;46.03;102107.78;10500794;28;20418;-70
2023/08/16 09:37:42;;;;;;;3.22;1.55;;;;;;;28.87;49.96;102118.19;10501161;28;20047;-69
2023/08/16 09:42:42;;;;;;;2.10;1.98;;;;;;;29.08;45.96;102109.69;10500260;28;20037;-69
2023/08/16 09:47:43;;;;;;;1.83;1.70;;;;;;;28.67;46.98;102107.22;10500347;28;20033;-70
2023/08/16 09:52:43;;;;;;;9.93;2.72;;;;;;;29.06;45.07;102101.59;10498954;28;20111;-69
2023/08/16 09:57:44;;;;;;;2.20;1.50;;;;;;;28.62;44.92;102104.44;10499894;28;20033;-69
2023/08/16 10:02:47;;;;;;;2.25;1.67;;;;;;;29.14;46.88;102094.56;10498328;28;20055;-69
2023/08/16 10:07:48;;;;;;;2.17;1.52;;;;;;;29.40;45.76;102095.94;10498225;28;20043;-69
2023/08/16 10:12:48;;;;;;;1.70;1.60;;;;;;;29.40;43.88;102095.13;10481173;28;20043;-69
2023/08/16 10:17:49;;;;;;;2.08;1.95;;;;;;;28.65;43.43;102095.50;10515000;28;20040;-69
2023/08/16 10:22:54;;;;;;;5.00;2.10;;;;;;;28.66;43.34;102111.13;10514517;28;20476;-69
2023/08/16 10:27:55;;;;;;;2.07;1.53;;;;;;;28.71;43.56;102100.75;10514676;28;20029;-69
2023/08/16 10:33:03;;;;;;;2.95;2.47;;;;;;;29.05;45.06;102085.16;10498655;28;20071;-70
2023/08/16 10:38:04;;;;;;;1.88;1.77;;;;;;;29.48;44.16;102102.00;10497360;28;20430;-70
2023/08/16 10:43:06;;;;;;;5.72;1.80;;;;;;;29.26;43.29;102096.94;10498415;28;20105;-70
2023/08/16 10:48:16;;;;;;;2.47;1.40;;;;;;;29.35;44.34;102093.19;10497117;28;20032;-70
2023/08/16 10:53:18;;;;;;;2.15;1.60;;;;;;;29.56;42.85;102092.97;10498519;28;20040;-70
2023/08/16 10:58:25;;;;;;;4.43;2.13;;;;;;;29.57;43.40;102087.09;10479532;28;20055;-70
2023/08/16 11:03:35;;;;;;;1.65;1.55;;;;;;;29.27;41.47;102091.06;10512763;28;20067;-70
2023/08/16 11:08:43;;;;;;;1.10;1.10;;;;;;;29.49;42.60;102078.56;10497830;28;20173;-70
2023/08/16 11:13:44;;;;;;;2.28;2.00;;;;;;;29.59;41.94;102082.03;10512913;28;20185;-70
2023/08/16 11:18:44;;;;;;;2.10;1.92;;;;;;;29.80;43.21;102081.81;10496843;28;20044;-70
2023/08/16 11:23:45;;;;;;;2.50;1.80;;;;;;;30.23;41.09;102087.41;10494902;28;20052;-70
2023/08/16 11:28:45;;;;;;;1.45;1.38;;;;;;;29.72;40.46;102074.94;10497433;28;20056;-70
2023/08/16 11:33:45;;;;;;;1.88;1.77;;;;;;;29.48;42.93;102077.69;10512148;28;20036;-70
2023/08/16 11:38:49;;;;;;;1.17;1.17;;;;;;;29.70;40.41;102077.19;10497101;28;20029;-70
2023/08/16 11:43:59;;;;;;;1.50;1.50;;;;;;;29.55;39.87;102085.75;10495619;28;20032;-70
2023/08/16 11:49:00;;;;;;;1.45;1.35;;;;;;;30.06;41.54;102074.75;10495978;28;20028;-70
2023/08/16 11:54:00;;;;;;;1.33;1.23;;;;;;;30.00;40.39;102073.16;10495056;28;20055;-70
2023/08/16 11:59:01;;;;;;;1.10;1.10;;;;;;;30.80;39.97;102063.84;10478010;28;20033;-70
2023/08/16 12:04:01;;;;;;;1.85;1.75;;;;;;;30.83;40.24;102064.38;10476951;28;20380;-70
2023/08/16 12:09:02;;;;;;;3.03;1.75;;;;;;;29.73;41.41;102059.84;10493482;28;20064;-70
2023/08/16 12:14:03;;;;;;;4.05;1.08;;;;;;;29.42;40.13;102059.38;10494939;28;20040;-70
2023/08/16 12:19:03;;;;;;;1.50;1.40;;;;;;;29.18;42.07;102053.78;10494839;28;20520;-70
2023/08/16 12:24:04;;;;;;;1.48;1.38;;;;;;;29.54;40.44;102054.19;10494715;28;20044;-70
2023/08/16 12:29:04;;;;;;;2.33;1.88;;;;;;;29.64;40.68;102048.53;10493483;28;20029;-70
2023/08/16 12:34:06;;;;;;;1.48;1.48;;;;;;;30.07;39.85;102039.28;10493243;28;20124;-70
2023/08/16 12:39:07;;;;;;;1.50;1.40;;;;;;;29.49;40.83;102037.53;10502333;28;20123;-70
2023/08/16 12:44:07;;;;;;;1.17;1.17;;;;;;;30.15;41.73;102043.34;10502459;28;20620;-70
2023/08/16 12:49:07;;;;;;;1.20;1.17;;;;;;;29.49;40.00;102036.69;10503163;28;20040;-70
2023/08/16 12:54:08;;;;;;;5.32;1.50;;;;;;;29.43;41.71;102039.53;10501250;28;20399;-70
2023/08/16 12:59:08;;;;;;;6.15;1.50;;;;;;;29.53;40.48;102032.16;10501325;28;20085;-70
2023/08/16 13:04:08;;;;;;;2.08;1.55;;;;;;;29.30;40.61;102019.91;10503481;28;20049;-70
2023/08/16 13:09:09;;;;;;;1.25;1.23;;;;;;;29.17;40.42;102021.44;10501019;28;20410;-70
2023/08/16 13:14:10;;;;;;;1.30;1.20;;;;;;;29.20;40.01;102024.47;10483980;28;20078;-70
2023/08/16 13:19:11;;;;;;;2.42;1.27;;;;;;;29.27;40.25;102015.75;10501316;28;20120;-70
2023/08/16 13:24:12;;;;;;;1.52;1.42;;;;;;;29.63;39.60;102018.09;10502492;28;20064;-70
2023/08/16 13:29:12;;;;;;;1.13;1.13;;;;;;;29.19;38.57;102017.19;10502708;28;20070;-70
2023/08/16 13:34:13;;;;;;;2.55;1.00;;;;;;;28.86;40.16;102021.72;10502647;28;20037;-70
2023/08/16 13:39:13;;;;;;;2.00;1.55;;;;;;;28.89;42.45;102025.88;10501271;28;20032;-70
2023/08/16 13:44:14;;;;;;;1.83;1.50;;;;;;;28.61;40.37;102021.97;10501257;28;20402;-70
2023/08/16 13:49:14;;;;;;;10.32;2.08;;;;;;;28.38;41.95;102020.75;10500105;28;20044;-70
2023/08/16 13:54:14;;;;;;;4.15;1.60;;;;;;;27.92;44.08;102027.47;10499740;28;20368;-70
2023/08/16 13:59:15;;;;;;;1.48;1.33;;;;;;;27.97;43.42;102038.56;10500545;28;20075;-70
2023/08/16 14:04:15;;;;;;;2.10;2.00;;;;;;;28.62;42.66;102029.19;10499632;28;20487;-70
2023/08/16 14:09:16;;;;;;;1.45;1.30;;;;;;;28.67;43.04;102024.41;10499514;28;20086;-70
2023/08/16 14:14:17;;;;;;;1.67;1.58;;;;;;;27.90;43.18;102026.91;10498400;28;20538;-70
2023/08/16 14:19:17;;;;;;;5.00;1.55;;;;;;;28.21;44.44;102030.34;10497923;28;20089;-70
2023/08/16 14:24:18;;;;;;;1.13;1.13;;;;;;;28.85;44.60;102035.97;10497628;28;20123;-70
2023/08/16 14:29:18;;;;;;;1.80;1.63;;;;;;;27.53;43.90;102030.94;10497340;28;20480;-70
2023/08/16 14:34:18;;;;;;;1.55;1.23;;;;;;;26.30;46.22;102029.44;10498012;28;20129;-69
2023/08/16 14:39:19;;;;;;;9.18;1.90;;;;;;;26.37;46.58;102024.44;10497399;28;20405;-70
2023/08/16 14:44:19;;;;;;;1.35;1.25;;;;;;;27.10;46.46;102013.81;10497824;28;20090;-69
2023/08/16 14:49:20;;;;;;;1.42;1.42;;;;;;;27.27;45.47;102013.53;10498135;28;20549;-70
2023/08/16 14:54:20;;;;;;;2.65;1.75;;;;;;;27.11;46.56;102028.56;10498884;28;20385;-70
2023/08/16 14:59:20;;;;;;;1.67;1.58;;;;;;;27.15;46.55;102020.50;10497289;28;20113;-71
2023/08/16 15:04:21;;;;;;;13.30;1.70;;;;;;;27.18;45.70;102015.22;10500262;28;20072;-70
2023/08/16 15:09:21;;;;;;;2.00;1.67;;;;;;;27.17;47.37;102016.34;10498751;28;20040;-70
2023/08/16 15:14:21;;;;;;;1.50;1.40;;;;;;;27.10;47.36;102010.22;10496708;28;20109;-70
2023/08/16 15:19:22;;;;;;;2.20;2.03;;;;;;;26.64;47.55;102011.13;10495785;28;20040;-70
2023/08/16 15:24:22;;;;;;;1.67;1.58;;;;;;;26.19;48.75;102011.91;10495567;28;20115;-70
2023/08/16 15:29:23;;;;;;;2.05;1.85;;;;;;;26.05;49.84;102008.84;10497668;28;20041;-69
2023/08/16 15:34:23;;;;;;;6.30;2.15;;;;;;;26.28;49.27;102004.69;10498444;28;20435;-69
2023/08/16 15:39:24;;;;;;;6.20;2.17;;;;;;;26.04;49.18;102023.84;10496669;28;20041;-69
2023/08/16 15:44:24;;;;;;;1.58;1.48;;;;;;;26.00;49.93;102019.09;10495493;28;20056;-69
2023/08/16 15:49:26;;;;;;;1.40;1.40;;;;;;;26.12;49.93;102020.50;10477082;28;20037;-70
2023/08/16 15:54:26;;;;;;;3.42;1.40;;;;;;;25.45;51.36;102001.97;10493747;28;20051;-69
2023/08/16 15:59:27;;;;;;;2.00;1.80;;;;;;;25.03;53.22;102005.59;10495881;28;20041;-69
2023/08/16 16:04:28;;;;;;;1.80;1.70;;;;;;;24.95;52.99;101995.00;10493850;28;20186;-69
2023/08/16 16:09:29;;;;;;;4.32;1.98;;;;;;;24.98;54.34;102000.03;10494765;28;20395;-69
2023/08/16 16:14:30;;;;;;;2.28;2.08;;;;;;;24.77;54.75;101994.34;10510286;28;20142;-69
2023/08/16 16:19:30;;;;;;;1.92;1.83;;;;;;;24.48;56.50;101993.03;10495573;28;20075;-69
2023/08/16 16:24:32;;;;;;;2.05;1.85;;;;;;;24.33;57.10;101986.22;10494462;28;20033;-69
2023/08/16 16:29:33;;;;;;;1.90;1.80;;;;;;;24.34;58.07;101987.06;10493526;28;20123;-69
2023/08/16 16:34:33;;;;;;;4.72;2.78;;;;;;;24.69;56.99;101988.47;10476793;28;20040;-69
2023/08/16 16:39:33;;;;;;;1.92;1.80;;;;;;;24.56;59.46;101987.00;10493043;28;20457;-69
2023/08/16 16:44:34;;;;;;;1.77;1.67;;;;;;;24.52;59.68;101978.38;10492796;28;20035;-69
2023/08/16 16:49:34;;;;;;;5.80;1.83;;;;;;;24.48;60.35;101981.97;10494129;28;20122;-70
2023/08/16 16:54:35;;;;;;;2.15;1.95;;;;;;;24.33;61.53;101988.16;10494072;28;20040;-69
2023/08/16 16:59:36;;;;;;;2.00;1.90;;;;;;;24.24;61.95;101982.25;10493317;28;20377;-70
2023/08/16 17:04:36;;;;;;;1.23;1.23;;;;;;;24.04;62.74;101982.91;10495400;28;20056;-69
2023/08/16 17:09:37;;;;;;;8.18;1.92;;;;;;;23.99;61.97;101979.25;10492369;28;20036;-69
2023/08/16 17:14:37;;;;;;;4.65;1.45;;;;;;;24.00;61.55;101987.31;10493835;28;20032;-69
2023/08/16 17:19:37;;;;;;;1.98;1.88;;;;;;;23.78;64.50;101989.28;10493231;28;20420;-69
2023/08/16 17:24:38;;;;;;;2.90;1.45;;;;;;;23.79;63.52;101974.34;10498580;28;20075;-69
2023/08/16 17:29:38;;;;;;;1.73;1.60;;;;;;;23.83;62.79;101981.03;10501479;28;20044;-69
2023/08/16 17:34:38;;;;;;;6.05;1.92;;;;;;;23.72;63.88;101984.78;10500791;28;20437;-69
2023/08/16 17:39:39;;;;;;;12.85;2.33;;;;;;;23.60;63.77;101982.13;10500839;28;20085;-69
2023/08/16 17:44:39;;;;;;;1.73;1.63;;;;;;;23.49;65.29;101986.72;10500183;28;20031;-69
2023/08/16 17:49:40;;;;;;;4.10;1.50;;;;;;;23.28;67.11;101977.31;10499812;28;20115;-69
2023/08/16 17:54:40;;;;;;;4.95;2.25;;;;;;;23.17;65.86;101984.66;10499884;28;20052;-69
2023/08/16 17:59:41;;;;;;;3.85;2.17;;;;;;;22.88;69.09;101981.16;10500014;28;20078;-69
2023/08/16 18:04:42;;;;;;;2.60;2.40;;;;;;;22.79;68.51;102003.94;10498360;28;20101;-69
2023/08/16 18:09:42;;;;;;;1.90;1.70;;;;;;;22.57;73.97;101995.59;10498384;28;20123;-69
2023/08/16 18:14:45;;;;;;;1.77;1.67;;;;;;;22.55;73.30;101995.00;10481535;28;20028;-69
2023/08/16 18:19:45;;;;;;;4.32;2.47;;;;;;;22.45;75.12;101995.66;10499711;28;20032;-69
2023/08/16 18:24:45;;;;;;;2.75;2.35;;;;;;;22.34;77.31;102004.88;10498942;28;20029;-69
2023/08/16 18:29:46;;;;;;;2.03;1.92;;;;;;;22.22;77.02;102007.69;10499012;28;20068;-69
2023/08/16 18:34:47;;;;;;;3.13;2.35;;;;;;;22.15;77.62;102015.25;10498395;28;20328;-69
2023/08/16 18:39:48;;;;;;;7.55;2.30;;;;;;;22.04;78.42;102009.53;10497315;28;20032;-72
2023/08/16 18:44:48;;;;;;;1.83;1.70;;;;;;;21.85;80.81;102004.47;10496831;28;20036;-73
2023/08/16 18:49:49;;;;;;;1.77;1.67;;;;;;;21.68;81.17;102009.94;10498906;28;20508;-73
2023/08/16 18:54:50;;;;;;;6.63;2.53;;;;;;;21.59;80.41;102024.09;10497071;28;20036;-73
2023/08/16 18:59:51;;;;;;;1.50;1.50;;;;;;;21.55;77.56;102024.84;10496716;28;20063;-73
2023/08/16 19:04:52;;;;;;;3.90;1.90;;;;;;;21.45;79.47;102027.38;10479054;28;20044;-72
2023/08/16 19:09:52;;;;;;;2.00;1.80;;;;;;;21.33;79.45;102035.63;10498926;28;20039;-72
2023/08/16 19:14:53;;;;;;;2.72;1.58;;;;;;;21.17;79.31;102037.19;10497270;28;20044;-72
2023/08/16 19:19:54;;;;;;;1.70;1.58;;;;;;;21.09;79.86;102045.81;10495036;28;20037;-76
2023/08/16 19:24:55;;;;;;;1.90;1.80;;;;;;;20.97;82.75;102053.25;10478880;28;20029;-74
2023/08/16 19:29:55;;;;;;;2.33;1.95;;;;;;;20.83;86.25;102047.97;10496331;28;20059;-70
2023/08/16 19:34:56;;;;;;;2.78;2.58;;;;;;;20.71;89.55;102054.53;10496263;28;20090;-70
2023/08/16 19:39:56;;;;;;;3.08;2.85;;;;;;;20.70;88.97;102061.97;10495021;28;20056;-69
2023/08/16 19:44:56;;;;;;;3.42;2.88;;;;;;;20.64;87.57;102061.00;10495588;28;20040;-70
2023/08/16 19:49:57;;;;;;;8.02;2.50;;;;;;;20.51;95.71;102061.19;10511005;28;20056;-70
2023/08/16 19:54:57;;;;;;;2.08;1.88;;;;;;;20.42;92.91;102066.19;10498480;28;20028;-70
2023/08/16 19:59:58;;;;;;;4.38;2.42;;;;;;;20.34;91.72;102071.19;10478458;28;20088;-69
2023/08/16 20:04:58;;;;;;;2.38;2.22;;;;;;;20.25;91.71;102059.66;10495804;28;20476;-70
2023/08/16 20:09:59;;;;;;;1.80;1.70;;;;;;;20.15;95.08;102053.88;10494806;28;20119;-70
2023/08/16 20:14:59;;;;;;;2.42;2.00;;;;;;;20.07;98.76;102059.69;10477086;28;20128;-70
2023/08/16 20:20:00;;;;;;;5.43;2.88;;;;;;;19.99;98.36;102055.38;10477574;28;20086;-70
2023/08/16 20:25:00;;;;;;;7.28;1.85;;;;;;;19.89;99.13;102063.34;10494116;28;20075;-69
2023/08/16 20:30:01;;;;;;;3.42;2.08;;;;;;;19.87;100.00;102059.97;10477195;28;20040;-70
2023/08/16 20:35:01;;;;;;;1.92;1.65;;;;;;;19.89;97.57;102053.19;10495642;28;20032;-68
2023/08/16 20:40:02;;;;;;;7.68;2.50;;;;;;;19.81;100.00;102050.72;10476534;28;20060;-69
2023/08/16 20:45:04;;;;;;;5.25;2.85;;;;;;;19.76;100.00;102055.28;10492372;28;20031;-69
2023/08/16 20:50:05;;;;;;;2.92;2.28;;;;;;;19.67;100.00;102047.31;10495271;28;20043;-70
2023/08/16 20:55:05;;;;;;;2.42;2.33;;;;;;;19.55;100.00;102059.28;10476219;28;20056;-69
2023/08/16 21:00:06;;;;;;;6.90;2.45;;;;;;;19.41;100.00;102055.84;10464890;28;20039;-69
2023/08/16 21:05:07;;;;;;;2.38;1.92;;;;;;;19.22;100.00;102055.84;10500952;28;20097;-70
2023/08/16 21:10:08;;;;;;;4.60;2.33;;;;;;;19.11;100.00;102051.06;10467850;28;20048;-69
2023/08/16 21:15:08;;;;;;;2.80;1.80;;;;;;;19.02;100.00;102057.94;10518537;28;20044;-69
2023/08/16 21:20:09;;;;;;;6.47;2.05;;;;;;;18.88;100.00;102059.13;10501164;28;20102;-69
2023/08/16 21:25:09;;;;;;;2.00;1.90;;;;;;;18.79;100.00;102075.00;10502036;28;20131;-72
2023/08/16 21:30:10;;;;;;;8.65;2.20;;;;;;;18.74;100.00;102078.44;10501868;28;20056;-70
2023/08/16 21:35:11;;;;;;;2.13;2.03;;;;;;;18.67;100.00;102072.16;10501184;28;20035;-69
2023/08/16 21:40:11;;;;;;;6.80;3.53;;;;;;;18.55;100.00;102072.00;10482924;28;20094;-69
2023/08/16 21:45:12;;;;;;;5.25;2.35;;;;;;;18.54;100.00;102077.72;10482677;28;20107;-70
2023/08/16 21:50:12;;;;;;;2.15;2.05;;;;;;;18.55;100.00;102076.66;10498901;28;20040;-69
2023/08/16 21:55:13;;;;;;;4.07;2.33;;;;;;;18.63;100.00;102089.25;10498890;28;20172;-69
2023/08/16 22:00:14;;;;;;;1.70;1.60;;;;;;;18.63;100.00;102090.09;10500750;28;20045;-69
2023/08/16 22:05:14;;;;;;;3.40;1.95;;;;;;;18.63;100.00;102094.75;10498278;28;20131;-69
2023/08/16 22:10:14;;;;;;;1.85;1.75;;;;;;;18.62;100.00;102093.91;10498375;28;20032;-70
2023/08/16 22:15:15;;;;;;;4.88;2.58;;;;;;;18.53;100.00;102087.00;10499713;28;20428;-70
2023/08/16 22:20:15;;;;;;;3.97;3.20;;;;;;;18.47;100.00;102087.88;10497962;28;20044;-69
2023/08/16 22:25:16;;;;;;;3.05;2.13;;;;;;;18.38;100.00;102087.34;10499292;28;20032;-70
2023/08/16 22:30:16;;;;;;;2.35;2.20;;;;;;;18.31;100.00;102092.88;10498295;28;20041;-69
2023/08/16 22:35:16;;;;;;;2.28;2.08;;;;;;;18.25;100.00;102092.88;10499001;28;20109;-69
2023/08/16 22:40:17;;;;;;;2.75;2.55;;;;;;;18.16;100.00;102095.06;10498735;28;20043;-69
2023/08/16 22:45:17;;;;;;;4.25;2.63;;;;;;;18.00;100.00;102093.66;10498982;28;20025;-69